sensor_id;sensor_type;location;lat;lon;timestamp;P1;durP1;ratioP1;P2;durP2;ratioP2
5923;SDS011;2987;50.884;14.818;2024-01-15T00:02:22;20.90;;;11.80;;
5923;SDS011;2987;50.884;14.818;2024-01-15T00:04:48;18.80;;;11.77;;
5923;SDS011;2987;50.884;14.818;2024-01-15T00:07:14;19.17;;;11.50;;
5923;SDS011;2987;50.884;14.818;2024-01-15T00:09:40;21.00;;;12.60;;
5923;SDS011;2987;50.884;14.818;2024-01-15T00:12:06;19.27;;;11.70;;
5923;SDS011;2987;50.884;14.818;2024-01-15T00:14:32;19.57;;;11.90;;
5923;SDS011;2987;50.884;14.818;2024-01-15T00:16:58;24.37;;;13.70;;
5923;SDS011;2987;50.884;14.818;2024-01-15T00:19:24;23.40;;;12.73;;
5923;SDS011;2987;50.884;14.818;2024-01-15T00:21:50;22.37;;;11.90;;
5923;SDS011;2987;50.884;14.818;2024-01-15T00:24:16;19.23;;;11.63;;
5923;SDS011;2987;50.884;14.818;2024-01-15T00:26:42;19.50;;;11.60;;
5923;SDS011;2987;50.884;14.818;2024-01-15T00:29:08;19.03;;;12.30;;
5923;SDS011;2987;50.884;14.818;2024-01-15T00:31:34;20.33;;;12.40;;
5923;SDS011;2987;50.884;14.818;2024-01-15T00:34:00;20.17;;;11.43;;
5923;SDS011;2987;50.884;14.818;2024-01-15T00:36:27;18.00;;;12.40;;
5923;SDS011;2987;50.884;14.818;2024-01-15T00:38:53;16.83;;;11.20;;
5923;SDS011;2987;50.884;14.818;2024-01-15T00:41:19;21.27;;;11.73;;
5923;SDS011;2987;50.884;14.818;2024-01-15T00:43:45;22.67;;;11.47;;
5923;SDS011;2987;50.884;14.818;2024-01-15T00:46:11;21.63;;;11.43;;
5923;SDS011;2987;50.884;14.818;2024-01-15T00:48:37;18.00;;;10.53;;
5923;SDS011;2987;50.884;14.818;2024-01-15T00:51:04;21.07;;;11.87;;
5923;SDS011;2987;50.884;14.818;2024-01-15T00:53:30;23.03;;;11.60;;
5923;SDS011;2987;50.884;14.818;2024-01-15T00:55:56;20.17;;;11.33;;
5923;SDS011;2987;50.884;14.818;2024-01-15T00:58:22;18.60;;;11.13;;
5923;SDS011;2987;50.884;14.818;2024-01-15T01:00:48;16.20;;;10.80;;
5923;SDS011;2987;50.884;14.818;2024-01-15T01:03:15;19.03;;;10.93;;
5923;SDS011;2987;50.884;14.818;2024-01-15T01:05:41;18.13;;;11.70;;
5923;SDS011;2987;50.884;14.818;2024-01-15T01:08:07;18.53;;;11.37;;
5923;SDS011;2987;50.884;14.818;2024-01-15T01:10:33;19.10;;;11.40;;
5923;SDS011;2987;50.884;14.818;2024-01-15T01:12:59;20.03;;;11.27;;
5923;SDS011;2987;50.884;14.818;2024-01-15T01:15:26;21.83;;;11.47;;
5923;SDS011;2987;50.884;14.818;2024-01-15T01:17:52;19.97;;;11.67;;
5923;SDS011;2987;50.884;14.818;2024-01-15T01:20:18;18.93;;;11.97;;
5923;SDS011;2987;50.884;14.818;2024-01-15T01:22:44;20.03;;;12.47;;
5923;SDS011;2987;50.884;14.818;2024-01-15T01:25:10;21.43;;;12.13;;
5923;SDS011;2987;50.884;14.818;2024-01-15T01:27:36;19.13;;;12.23;;
5923;SDS011;2987;50.884;14.818;2024-01-15T01:30:02;21.47;;;11.73;;
5923;SDS011;2987;50.884;14.818;2024-01-15T01:32:29;21.83;;;12.10;;
5923;SDS011;2987;50.884;14.818;2024-01-15T01:34:55;21.73;;;11.97;;
5923;SDS011;2987;50.884;14.818;2024-01-15T01:37:21;20.07;;;12.20;;
5923;SDS011;2987;50.884;14.818;2024-01-15T01:39:47;18.27;;;12.07;;
5923;SDS011;2987;50.884;14.818;2024-01-15T01:42:13;19.70;;;11.43;;
5923;SDS011;2987;50.884;14.818;2024-01-15T01:44:39;22.93;;;12.47;;
5923;SDS011;2987;50.884;14.818;2024-01-15T01:47:05;22.57;;;12.97;;
5923;SDS011;2987;50.884;14.818;2024-01-15T01:49:31;19.93;;;12.13;;
5923;SDS011;2987;50.884;14.818;2024-01-15T01:51:58;20.60;;;11.40;;
5923;SDS011;2987;50.884;14.818;2024-01-15T01:54:27;23.40;;;13.07;;
5923;SDS011;2987;50.884;14.818;2024-01-15T01:56:55;21.47;;;11.73;;
5923;SDS011;2987;50.884;14.818;2024-01-15T01:59:22;22.57;;;11.57;;
5923;SDS011;2987;50.884;14.818;2024-01-15T02:01:51;20.43;;;12.10;;
5923;SDS011;2987;50.884;14.818;2024-01-15T02:04:24;15.63;;;10.73;;
5923;SDS011;2987;50.884;14.818;2024-01-15T02:06:50;17.63;;;10.47;;
5923;SDS011;2987;50.884;14.818;2024-01-15T02:09:17;15.67;;;10.13;;
5923;SDS011;2987;50.884;14.818;2024-01-15T02:11:43;16.00;;;10.40;;
5923;SDS011;2987;50.884;14.818;2024-01-15T02:14:14;14.40;;;9.30;;
5923;SDS011;2987;50.884;14.818;2024-01-15T02:16:40;18.40;;;9.80;;
5923;SDS011;2987;50.884;14.818;2024-01-15T02:19:07;13.83;;;9.00;;
5923;SDS011;2987;50.884;14.818;2024-01-15T02:21:33;19.47;;;9.90;;
5923;SDS011;2987;50.884;14.818;2024-01-15T02:24:01;14.20;;;9.27;;
5923;SDS011;2987;50.884;14.818;2024-01-15T02:26:27;14.93;;;9.53;;
5923;SDS011;2987;50.884;14.818;2024-01-15T02:28:53;15.70;;;9.70;;
5923;SDS011;2987;50.884;14.818;2024-01-15T02:31:20;18.10;;;10.27;;
5923;SDS011;2987;50.884;14.818;2024-01-15T02:33:46;15.87;;;10.77;;
5923;SDS011;2987;50.884;14.818;2024-01-15T02:36:12;18.00;;;10.40;;
5923;SDS011;2987;50.884;14.818;2024-01-15T02:38:38;16.03;;;10.20;;
5923;SDS011;2987;50.884;14.818;2024-01-15T02:41:04;20.30;;;10.97;;
5923;SDS011;2987;50.884;14.818;2024-01-15T02:43:30;20.73;;;11.00;;
5923;SDS011;2987;50.884;14.818;2024-01-15T02:45:56;15.73;;;9.87;;
5923;SDS011;2987;50.884;14.818;2024-01-15T02:48:22;17.20;;;10.47;;
5923;SDS011;2987;50.884;14.818;2024-01-15T02:50:47;15.10;;;9.47;;
5923;SDS011;2987;50.884;14.818;2024-01-15T02:53:13;18.10;;;10.60;;
5923;SDS011;2987;50.884;14.818;2024-01-15T02:55:39;17.10;;;9.80;;
5923;SDS011;2987;50.884;14.818;2024-01-15T02:58:05;16.60;;;9.80;;
5923;SDS011;2987;50.884;14.818;2024-01-15T03:00:32;17.63;;;9.80;;
5923;SDS011;2987;50.884;14.818;2024-01-15T03:02:58;13.50;;;9.03;;
5923;SDS011;2987;50.884;14.818;2024-01-15T03:05:24;15.00;;;9.40;;
5923;SDS011;2987;50.884;14.818;2024-01-15T03:07:50;18.60;;;9.90;;
5923;SDS011;2987;50.884;14.818;2024-01-15T03:10:16;13.60;;;9.10;;
5923;SDS011;2987;50.884;14.818;2024-01-15T03:12:42;15.97;;;9.70;;
5923;SDS011;2987;50.884;14.818;2024-01-15T03:15:08;15.17;;;8.53;;
5923;SDS011;2987;50.884;14.818;2024-01-15T03:17:34;13.17;;;8.70;;
5923;SDS011;2987;50.884;14.818;2024-01-15T03:20:00;16.83;;;9.70;;
5923;SDS011;2987;50.884;14.818;2024-01-15T03:22:26;15.53;;;9.70;;
5923;SDS011;2987;50.884;14.818;2024-01-15T03:24:53;15.20;;;9.53;;
5923;SDS011;2987;50.884;14.818;2024-01-15T03:27:19;14.67;;;8.93;;
5923;SDS011;2987;50.884;14.818;2024-01-15T03:29:45;15.57;;;9.50;;
5923;SDS011;2987;50.884;14.818;2024-01-15T03:32:11;14.00;;;8.87;;
5923;SDS011;2987;50.884;14.818;2024-01-15T03:34:37;13.10;;;9.17;;
5923;SDS011;2987;50.884;14.818;2024-01-15T03:37:03;14.27;;;9.10;;
5923;SDS011;2987;50.884;14.818;2024-01-15T03:39:29;15.73;;;9.37;;
5923;SDS011;2987;50.884;14.818;2024-01-15T03:41:55;15.67;;;8.33;;
5923;SDS011;2987;50.884;14.818;2024-01-15T03:44:21;14.83;;;8.90;;
5923;SDS011;2987;50.884;14.818;2024-01-15T03:46:46;14.40;;;8.73;;
5923;SDS011;2987;50.884;14.818;2024-01-15T03:49:12;13.37;;;8.27;;
5923;SDS011;2987;50.884;14.818;2024-01-15T03:51:38;12.53;;;7.87;;
5923;SDS011;2987;50.884;14.818;2024-01-15T03:54:04;14.77;;;9.00;;
5923;SDS011;2987;50.884;14.818;2024-01-15T03:56:30;13.40;;;8.17;;
5923;SDS011;2987;50.884;14.818;2024-01-15T03:58:56;12.83;;;8.00;;
5923;SDS011;2987;50.884;14.818;2024-01-15T04:01:22;14.77;;;8.73;;
5923;SDS011;2987;50.884;14.818;2024-01-15T04:03:48;13.60;;;8.80;;
5923;SDS011;2987;50.884;14.818;2024-01-15T04:06:14;15.17;;;8.93;;
5923;SDS011;2987;50.884;14.818;2024-01-15T04:08:40;14.83;;;8.70;;
5923;SDS011;2987;50.884;14.818;2024-01-15T04:11:06;12.67;;;8.43;;
5923;SDS011;2987;50.884;14.818;2024-01-15T04:13:32;16.50;;;8.60;;
5923;SDS011;2987;50.884;14.818;2024-01-15T04:15:59;16.33;;;9.27;;
5923;SDS011;2987;50.884;14.818;2024-01-15T04:18:25;13.10;;;8.37;;
5923;SDS011;2987;50.884;14.818;2024-01-15T04:20:51;14.10;;;8.40;;
5923;SDS011;2987;50.884;14.818;2024-01-15T04:23:17;14.20;;;8.87;;
5923;SDS011;2987;50.884;14.818;2024-01-15T04:25:43;14.53;;;8.57;;
5923;SDS011;2987;50.884;14.818;2024-01-15T04:28:11;10.43;;;7.50;;
5923;SDS011;2987;50.884;14.818;2024-01-15T04:30:37;11.47;;;7.33;;
5923;SDS011;2987;50.884;14.818;2024-01-15T04:33:03;10.67;;;7.10;;
5923;SDS011;2987;50.884;14.818;2024-01-15T04:35:30;13.60;;;8.07;;
5923;SDS011;2987;50.884;14.818;2024-01-15T04:37:56;11.63;;;7.37;;
5923;SDS011;2987;50.884;14.818;2024-01-15T04:40:22;12.93;;;7.77;;
5923;SDS011;2987;50.884;14.818;2024-01-15T04:42:48;14.67;;;8.27;;
5923;SDS011;2987;50.884;14.818;2024-01-15T04:45:14;11.67;;;7.90;;
5923;SDS011;2987;50.884;14.818;2024-01-15T04:47:40;11.37;;;7.70;;
5923;SDS011;2987;50.884;14.818;2024-01-15T04:50:07;10.47;;;6.63;;
5923;SDS011;2987;50.884;14.818;2024-01-15T04:52:34;10.93;;;7.60;;
5923;SDS011;2987;50.884;14.818;2024-01-15T04:54:59;11.53;;;7.37;;
5923;SDS011;2987;50.884;14.818;2024-01-15T04:57:25;12.53;;;7.70;;
5923;SDS011;2987;50.884;14.818;2024-01-15T04:59:51;10.10;;;7.33;;
5923;SDS011;2987;50.884;14.818;2024-01-15T05:02:17;12.20;;;7.30;;
5923;SDS011;2987;50.884;14.818;2024-01-15T05:04:43;9.80;;;6.87;;
5923;SDS011;2987;50.884;14.818;2024-01-15T05:07:09;11.67;;;7.00;;
5923;SDS011;2987;50.884;14.818;2024-01-15T05:09:36;10.87;;;7.00;;
5923;SDS011;2987;50.884;14.818;2024-01-15T05:12:02;10.70;;;6.67;;
5923;SDS011;2987;50.884;14.818;2024-01-15T05:14:28;12.10;;;6.90;;
5923;SDS011;2987;50.884;14.818;2024-01-15T05:16:54;12.37;;;7.00;;
5923;SDS011;2987;50.884;14.818;2024-01-15T05:19:20;11.70;;;7.00;;
5923;SDS011;2987;50.884;14.818;2024-01-15T05:21:46;10.63;;;6.77;;
5923;SDS011;2987;50.884;14.818;2024-01-15T05:24:11;13.00;;;7.83;;
5923;SDS011;2987;50.884;14.818;2024-01-15T05:26:38;10.87;;;7.33;;
5923;SDS011;2987;50.884;14.818;2024-01-15T05:29:04;9.03;;;6.77;;
5923;SDS011;2987;50.884;14.818;2024-01-15T05:31:30;10.23;;;6.90;;
5923;SDS011;2987;50.884;14.818;2024-01-15T05:33:56;10.67;;;7.00;;
5923;SDS011;2987;50.884;14.818;2024-01-15T05:36:22;10.57;;;6.73;;
5923;SDS011;2987;50.884;14.818;2024-01-15T05:38:48;9.03;;;6.13;;
5923;SDS011;2987;50.884;14.818;2024-01-15T05:41:15;10.03;;;6.77;;
5923;SDS011;2987;50.884;14.818;2024-01-15T05:43:41;8.20;;;6.20;;
5923;SDS011;2987;50.884;14.818;2024-01-15T05:46:06;10.03;;;5.83;;
5923;SDS011;2987;50.884;14.818;2024-01-15T05:48:32;13.53;;;8.17;;
5923;SDS011;2987;50.884;14.818;2024-01-15T05:50:59;12.73;;;8.00;;
5923;SDS011;2987;50.884;14.818;2024-01-15T05:53:25;12.27;;;7.47;;
5923;SDS011;2987;50.884;14.818;2024-01-15T05:55:51;10.20;;;6.20;;
5923;SDS011;2987;50.884;14.818;2024-01-15T05:58:17;10.93;;;7.13;;
5923;SDS011;2987;50.884;14.818;2024-01-15T06:00:42;11.20;;;6.50;;
5923;SDS011;2987;50.884;14.818;2024-01-15T06:03:08;9.77;;;6.33;;
5923;SDS011;2987;50.884;14.818;2024-01-15T06:05:35;8.87;;;6.00;;
5923;SDS011;2987;50.884;14.818;2024-01-15T06:08:01;11.40;;;6.60;;
5923;SDS011;2987;50.884;14.818;2024-01-15T06:10:27;12.00;;;6.40;;
5923;SDS011;2987;50.884;14.818;2024-01-15T06:12:53;7.63;;;5.17;;
5923;SDS011;2987;50.884;14.818;2024-01-15T06:15:19;8.40;;;5.70;;
5923;SDS011;2987;50.884;14.818;2024-01-15T06:17:45;9.73;;;6.47;;
5923;SDS011;2987;50.884;14.818;2024-01-15T06:20:11;9.77;;;5.43;;
5923;SDS011;2987;50.884;14.818;2024-01-15T06:22:37;8.17;;;5.40;;
5923;SDS011;2987;50.884;14.818;2024-01-15T06:25:06;11.83;;;7.00;;
5923;SDS011;2987;50.884;14.818;2024-01-15T06:27:34;11.93;;;6.50;;
5923;SDS011;2987;50.884;14.818;2024-01-15T06:30:00;8.73;;;5.43;;
5923;SDS011;2987;50.884;14.818;2024-01-15T06:32:26;9.47;;;6.10;;
5923;SDS011;2987;50.884;14.818;2024-01-15T06:34:52;9.73;;;6.10;;
5923;SDS011;2987;50.884;14.818;2024-01-15T06:37:18;10.37;;;6.00;;
5923;SDS011;2987;50.884;14.818;2024-01-15T06:39:45;8.10;;;5.20;;
5923;SDS011;2987;50.884;14.818;2024-01-15T06:42:11;8.57;;;5.60;;
5923;SDS011;2987;50.884;14.818;2024-01-15T06:44:37;8.53;;;5.67;;
5923;SDS011;2987;50.884;14.818;2024-01-15T06:47:03;10.17;;;6.47;;
5923;SDS011;2987;50.884;14.818;2024-01-15T06:49:30;10.63;;;6.17;;
5923;SDS011;2987;50.884;14.818;2024-01-15T06:51:56;9.73;;;5.60;;
5923;SDS011;2987;50.884;14.818;2024-01-15T06:54:22;8.33;;;5.93;;
5923;SDS011;2987;50.884;14.818;2024-01-15T06:56:49;8.60;;;5.70;;
5923;SDS011;2987;50.884;14.818;2024-01-15T06:59:15;8.33;;;5.27;;
5923;SDS011;2987;50.884;14.818;2024-01-15T07:01:41;11.20;;;6.13;;
5923;SDS011;2987;50.884;14.818;2024-01-15T07:06:56;10.60;;;5.17;;
5923;SDS011;2987;50.884;14.818;2024-01-15T07:09:22;7.43;;;5.20;;
5923;SDS011;2987;50.884;14.818;2024-01-15T07:11:48;11.40;;;5.70;;
5923;SDS011;2987;50.884;14.818;2024-01-15T07:14:14;9.57;;;5.70;;
5923;SDS011;2987;50.884;14.818;2024-01-15T07:16:40;10.03;;;5.80;;
5923;SDS011;2987;50.884;14.818;2024-01-15T07:19:06;10.37;;;5.70;;
5923;SDS011;2987;50.884;14.818;2024-01-15T07:21:32;18.77;;;9.10;;
5923;SDS011;2987;50.884;14.818;2024-01-15T07:23:58;19.03;;;10.73;;
5923;SDS011;2987;50.884;14.818;2024-01-15T07:26:24;18.07;;;9.93;;
5923;SDS011;2987;50.884;14.818;2024-01-15T07:28:50;21.07;;;10.07;;
5923;SDS011;2987;50.884;14.818;2024-01-15T07:31:17;16.70;;;10.30;;
5923;SDS011;2987;50.884;14.818;2024-01-15T07:33:43;17.50;;;10.20;;
5923;SDS011;2987;50.884;14.818;2024-01-15T07:36:09;18.30;;;10.33;;
5923;SDS011;2987;50.884;14.818;2024-01-15T07:38:34;18.20;;;10.80;;
5923;SDS011;2987;50.884;14.818;2024-01-15T07:41:00;19.53;;;11.37;;
5923;SDS011;2987;50.884;14.818;2024-01-15T07:43:26;19.70;;;11.17;;
5923;SDS011;2987;50.884;14.818;2024-01-15T07:45:53;18.93;;;10.63;;
5923;SDS011;2987;50.884;14.818;2024-01-15T07:48:19;19.33;;;10.77;;
5923;SDS011;2987;50.884;14.818;2024-01-15T07:50:45;19.03;;;11.00;;
5923;SDS011;2987;50.884;14.818;2024-01-15T07:53:11;20.90;;;11.17;;
5923;SDS011;2987;50.884;14.818;2024-01-15T07:55:37;16.77;;;10.07;;
5923;SDS011;2987;50.884;14.818;2024-01-15T07:58:03;16.70;;;10.97;;
5923;SDS011;2987;50.884;14.818;2024-01-15T08:00:30;17.93;;;10.03;;
5923;SDS011;2987;50.884;14.818;2024-01-15T08:02:56;19.10;;;10.20;;
5923;SDS011;2987;50.884;14.818;2024-01-15T08:05:21;20.47;;;10.67;;
5923;SDS011;2987;50.884;14.818;2024-01-15T08:07:47;16.93;;;10.57;;
5923;SDS011;2987;50.884;14.818;2024-01-15T08:10:13;20.50;;;10.57;;
5923;SDS011;2987;50.884;14.818;2024-01-15T08:12:39;18.70;;;10.37;;
5923;SDS011;2987;50.884;14.818;2024-01-15T08:15:05;20.47;;;10.93;;
5923;SDS011;2987;50.884;14.818;2024-01-15T08:17:31;18.73;;;10.67;;
5923;SDS011;2987;50.884;14.818;2024-01-15T08:19:57;19.23;;;10.73;;
5923;SDS011;2987;50.884;14.818;2024-01-15T08:22:24;20.70;;;10.60;;
5923;SDS011;2987;50.884;14.818;2024-01-15T08:24:50;18.67;;;10.70;;
5923;SDS011;2987;50.884;14.818;2024-01-15T08:27:17;19.70;;;10.77;;
5923;SDS011;2987;50.884;14.818;2024-01-15T08:29:43;18.73;;;10.63;;
5923;SDS011;2987;50.884;14.818;2024-01-15T08:32:10;20.30;;;10.87;;
5923;SDS011;2987;50.884;14.818;2024-01-15T08:34:39;20.23;;;10.90;;
5923;SDS011;2987;50.884;14.818;2024-01-15T08:37:05;20.43;;;11.30;;
5923;SDS011;2987;50.884;14.818;2024-01-15T08:39:31;19.47;;;10.93;;
5923;SDS011;2987;50.884;14.818;2024-01-15T08:41:57;24.53;;;11.93;;
5923;SDS011;2987;50.884;14.818;2024-01-15T08:44:23;22.73;;;12.13;;
5923;SDS011;2987;50.884;14.818;2024-01-15T08:46:49;22.33;;;11.53;;
5923;SDS011;2987;50.884;14.818;2024-01-15T08:49:15;18.37;;;10.63;;
5923;SDS011;2987;50.884;14.818;2024-01-15T08:51:41;23.50;;;11.90;;
5923;SDS011;2987;50.884;14.818;2024-01-15T08:54:07;18.13;;;10.10;;
5923;SDS011;2987;50.884;14.818;2024-01-15T08:56:33;18.20;;;10.50;;
5923;SDS011;2987;50.884;14.818;2024-01-15T08:58:59;20.83;;;10.27;;
5923;SDS011;2987;50.884;14.818;2024-01-15T09:01:26;21.80;;;10.13;;
5923;SDS011;2987;50.884;14.818;2024-01-15T09:03:52;18.40;;;10.53;;
5923;SDS011;2987;50.884;14.818;2024-01-15T09:06:18;22.77;;;10.33;;
5923;SDS011;2987;50.884;14.818;2024-01-15T09:08:44;19.07;;;9.57;;
5923;SDS011;2987;50.884;14.818;2024-01-15T09:11:10;16.70;;;9.83;;
5923;SDS011;2987;50.884;14.818;2024-01-15T09:13:36;17.47;;;9.40;;
5923;SDS011;2987;50.884;14.818;2024-01-15T09:16:01;15.30;;;9.40;;
5923;SDS011;2987;50.884;14.818;2024-01-15T09:18:28;18.23;;;10.30;;
5923;SDS011;2987;50.884;14.818;2024-01-15T09:20:55;21.50;;;9.70;;
5923;SDS011;2987;50.884;14.818;2024-01-15T09:23:21;19.73;;;10.93;;
5923;SDS011;2987;50.884;14.818;2024-01-15T09:25:47;16.33;;;9.47;;
5923;SDS011;2987;50.884;14.818;2024-01-15T09:28:14;18.20;;;10.00;;
5923;SDS011;2987;50.884;14.818;2024-01-15T09:30:40;21.03;;;10.70;;
5923;SDS011;2987;50.884;14.818;2024-01-15T09:33:06;16.63;;;9.97;;
5923;SDS011;2987;50.884;14.818;2024-01-15T09:35:32;18.47;;;10.17;;
5923;SDS011;2987;50.884;14.818;2024-01-15T09:37:58;20.83;;;10.27;;
5923;SDS011;2987;50.884;14.818;2024-01-15T09:40:24;19.20;;;9.50;;
5923;SDS011;2987;50.884;14.818;2024-01-15T09:42:53;14.23;;;8.30;;
5923;SDS011;2987;50.884;14.818;2024-01-15T09:45:19;13.13;;;8.07;;
5923;SDS011;2987;50.884;14.818;2024-01-15T09:47:45;15.27;;;9.40;;
5923;SDS011;2987;50.884;14.818;2024-01-15T09:50:12;20.37;;;9.23;;
5923;SDS011;2987;50.884;14.818;2024-01-15T09:52:40;17.90;;;9.27;;
5923;SDS011;2987;50.884;14.818;2024-01-15T09:55:07;17.17;;;10.27;;
5923;SDS011;2987;50.884;14.818;2024-01-15T09:57:34;14.00;;;8.87;;
5923;SDS011;2987;50.884;14.818;2024-01-15T10:00:01;16.20;;;8.77;;
5923;SDS011;2987;50.884;14.818;2024-01-15T10:02:31;18.30;;;8.40;;
5923;SDS011;2987;50.884;14.818;2024-01-15T10:04:59;16.33;;;8.97;;
5923;SDS011;2987;50.884;14.818;2024-01-15T10:07:25;15.67;;;8.40;;
5923;SDS011;2987;50.884;14.818;2024-01-15T10:09:51;16.23;;;8.47;;
5923;SDS011;2987;50.884;14.818;2024-01-15T10:12:17;18.50;;;8.70;;
5923;SDS011;2987;50.884;14.818;2024-01-15T10:14:44;17.37;;;9.00;;
5923;SDS011;2987;50.884;14.818;2024-01-15T10:17:13;13.37;;;7.87;;
5923;SDS011;2987;50.884;14.818;2024-01-15T10:19:45;16.17;;;9.20;;
5923;SDS011;2987;50.884;14.818;2024-01-15T10:22:13;14.03;;;8.33;;
5923;SDS011;2987;50.884;14.818;2024-01-15T10:24:40;15.30;;;8.47;;
5923;SDS011;2987;50.884;14.818;2024-01-15T10:27:07;16.10;;;8.83;;
5923;SDS011;2987;50.884;14.818;2024-01-15T10:29:36;16.63;;;9.30;;
5923;SDS011;2987;50.884;14.818;2024-01-15T10:32:03;14.20;;;8.40;;
5923;SDS011;2987;50.884;14.818;2024-01-15T10:34:39;15.30;;;8.77;;
5923;SDS011;2987;50.884;14.818;2024-01-15T10:37:09;16.03;;;8.80;;
5923;SDS011;2987;50.884;14.818;2024-01-15T10:39:35;14.43;;;8.23;;
5923;SDS011;2987;50.884;14.818;2024-01-15T10:42:02;17.67;;;9.07;;
5923;SDS011;2987;50.884;14.818;2024-01-15T10:44:28;13.83;;;8.23;;
5923;SDS011;2987;50.884;14.818;2024-01-15T10:46:55;17.97;;;8.87;;
5923;SDS011;2987;50.884;14.818;2024-01-15T10:49:22;15.77;;;8.47;;
5923;SDS011;2987;50.884;14.818;2024-01-15T10:51:52;14.43;;;8.53;;
5923;SDS011;2987;50.884;14.818;2024-01-15T10:54:19;16.90;;;8.27;;
5923;SDS011;2987;50.884;14.818;2024-01-15T10:56:46;14.03;;;8.30;;
5923;SDS011;2987;50.884;14.818;2024-01-15T10:59:13;15.13;;;8.37;;
5923;SDS011;2987;50.884;14.818;2024-01-15T11:01:39;14.13;;;7.90;;
5923;SDS011;2987;50.884;14.818;2024-01-15T11:04:07;13.63;;;7.57;;
5923;SDS011;2987;50.884;14.818;2024-01-15T11:06:42;14.10;;;7.33;;
5923;SDS011;2987;50.884;14.818;2024-01-15T11:09:10;13.13;;;7.37;;
5923;SDS011;2987;50.884;14.818;2024-01-15T11:11:44;14.50;;;6.93;;
5923;SDS011;2987;50.884;14.818;2024-01-15T11:14:33;12.00;;;6.43;;
5923;SDS011;2987;50.884;14.818;2024-01-15T11:17:00;14.33;;;6.53;;
5923;SDS011;2987;50.884;14.818;2024-01-15T11:19:48;9.40;;;6.20;;
5923;SDS011;2987;50.884;14.818;2024-01-15T11:25:01;10.90;;;5.83;;
5923;SDS011;2987;50.884;14.818;2024-01-15T11:30:16;11.13;;;6.10;;
5923;SDS011;2987;50.884;14.818;2024-01-15T11:32:45;9.07;;;5.57;;
5923;SDS011;2987;50.884;14.818;2024-01-15T11:35:12;9.63;;;6.23;;
5923;SDS011;2987;50.884;14.818;2024-01-15T11:40:38;10.60;;;6.23;;
5923;SDS011;2987;50.884;14.818;2024-01-15T11:43:05;8.47;;;5.20;;
5923;SDS011;2987;50.884;14.818;2024-01-15T11:45:32;10.73;;;5.50;;
5923;SDS011;2987;50.884;14.818;2024-01-15T11:50:31;7.67;;;4.50;;
5923;SDS011;2987;50.884;14.818;2024-01-15T11:53:01;8.50;;;4.90;;
5923;SDS011;2987;50.884;14.818;2024-01-15T11:55:34;8.67;;;4.63;;
5923;SDS011;2987;50.884;14.818;2024-01-15T11:58:13;7.43;;;4.60;;
5923;SDS011;2987;50.884;14.818;2024-01-15T12:00:42;9.10;;;4.47;;
5923;SDS011;2987;50.884;14.818;2024-01-15T12:03:16;7.93;;;4.53;;
5923;SDS011;2987;50.884;14.818;2024-01-15T12:05:42;7.93;;;4.43;;
5923;SDS011;2987;50.884;14.818;2024-01-15T12:08:08;7.23;;;4.47;;
5923;SDS011;2987;50.884;14.818;2024-01-15T12:10:41;8.30;;;4.30;;
5923;SDS011;2987;50.884;14.818;2024-01-15T12:13:11;6.23;;;4.30;;
5923;SDS011;2987;50.884;14.818;2024-01-15T12:15:43;8.50;;;4.50;;
5923;SDS011;2987;50.884;14.818;2024-01-15T12:18:12;7.47;;;4.43;;
5923;SDS011;2987;50.884;14.818;2024-01-15T12:20:40;5.53;;;4.07;;
5923;SDS011;2987;50.884;14.818;2024-01-15T12:23:07;5.23;;;3.57;;
5923;SDS011;2987;50.884;14.818;2024-01-15T12:25:35;5.90;;;3.90;;
5923;SDS011;2987;50.884;14.818;2024-01-15T12:28:02;8.47;;;3.80;;
5923;SDS011;2987;50.884;14.818;2024-01-15T12:30:30;5.47;;;3.50;;
5923;SDS011;2987;50.884;14.818;2024-01-15T12:33:03;7.07;;;3.80;;
5923;SDS011;2987;50.884;14.818;2024-01-15T12:35:30;5.40;;;4.23;;
5923;SDS011;2987;50.884;14.818;2024-01-15T12:37:56;7.40;;;3.90;;
5923;SDS011;2987;50.884;14.818;2024-01-15T12:40:22;6.77;;;3.73;;
5923;SDS011;2987;50.884;14.818;2024-01-15T12:42:49;8.17;;;3.93;;
5923;SDS011;2987;50.884;14.818;2024-01-15T12:45:15;7.93;;;3.40;;
5923;SDS011;2987;50.884;14.818;2024-01-15T12:47:41;6.43;;;4.00;;
5923;SDS011;2987;50.884;14.818;2024-01-15T12:50:08;7.00;;;3.77;;
5923;SDS011;2987;50.884;14.818;2024-01-15T12:52:35;4.77;;;3.57;;
5923;SDS011;2987;50.884;14.818;2024-01-15T12:55:06;8.07;;;3.53;;
5923;SDS011;2987;50.884;14.818;2024-01-15T12:57:34;8.53;;;3.97;;
5923;SDS011;2987;50.884;14.818;2024-01-15T13:00:01;5.10;;;3.40;;
5923;SDS011;2987;50.884;14.818;2024-01-15T13:02:40;7.17;;;3.63;;
5923;SDS011;2987;50.884;14.818;2024-01-15T13:05:09;6.53;;;3.73;;
5923;SDS011;2987;50.884;14.818;2024-01-15T13:07:36;5.50;;;3.80;;
5923;SDS011;2987;50.884;14.818;2024-01-15T13:10:03;9.83;;;3.77;;
5923;SDS011;2987;50.884;14.818;2024-01-15T13:12:29;5.43;;;4.00;;
5923;SDS011;2987;50.884;14.818;2024-01-15T13:14:57;5.67;;;3.43;;
5923;SDS011;2987;50.884;14.818;2024-01-15T13:17:24;6.90;;;4.10;;
5923;SDS011;2987;50.884;14.818;2024-01-15T13:19:49;5.03;;;3.33;;
5923;SDS011;2987;50.884;14.818;2024-01-15T13:22:16;6.83;;;4.00;;
5923;SDS011;2987;50.884;14.818;2024-01-15T13:24:42;4.73;;;3.20;;
5923;SDS011;2987;50.884;14.818;2024-01-15T13:27:09;7.07;;;3.60;;
5923;SDS011;2987;50.884;14.818;2024-01-15T13:29:35;5.80;;;3.57;;
5923;SDS011;2987;50.884;14.818;2024-01-15T13:32:01;7.20;;;3.67;;
5923;SDS011;2987;50.884;14.818;2024-01-15T13:34:31;6.07;;;3.53;;
5923;SDS011;2987;50.884;14.818;2024-01-15T13:36:57;5.43;;;3.10;;
5923;SDS011;2987;50.884;14.818;2024-01-15T13:39:23;6.73;;;3.40;;
5923;SDS011;2987;50.884;14.818;2024-01-15T13:41:49;5.63;;;3.50;;
5923;SDS011;2987;50.884;14.818;2024-01-15T13:44:15;10.70;;;4.77;;
5923;SDS011;2987;50.884;14.818;2024-01-15T13:46:41;5.43;;;4.03;;
5923;SDS011;2987;50.884;14.818;2024-01-15T13:49:07;6.20;;;3.73;;
5923;SDS011;2987;50.884;14.818;2024-01-15T13:51:35;7.20;;;4.30;;
5923;SDS011;2987;50.884;14.818;2024-01-15T13:54:02;3.87;;;3.27;;
5923;SDS011;2987;50.884;14.818;2024-01-15T13:56:29;5.37;;;3.37;;
5923;SDS011;2987;50.884;14.818;2024-01-15T13:58:58;6.57;;;4.20;;
5923;SDS011;2987;50.884;14.818;2024-01-15T14:01:24;6.00;;;3.80;;
5923;SDS011;2987;50.884;14.818;2024-01-15T14:03:50;4.97;;;3.43;;
5923;SDS011;2987;50.884;14.818;2024-01-15T14:06:16;5.73;;;3.97;;
5923;SDS011;2987;50.884;14.818;2024-01-15T14:08:42;4.40;;;3.33;;
5923;SDS011;2987;50.884;14.818;2024-01-15T14:11:08;6.30;;;3.60;;
5923;SDS011;2987;50.884;14.818;2024-01-15T14:13:35;5.07;;;3.50;;
5923;SDS011;2987;50.884;14.818;2024-01-15T14:16:01;6.97;;;4.03;;
5923;SDS011;2987;50.884;14.818;2024-01-15T14:18:27;6.53;;;3.37;;
5923;SDS011;2987;50.884;14.818;2024-01-15T14:20:53;4.97;;;3.23;;
5923;SDS011;2987;50.884;14.818;2024-01-15T14:23:20;5.63;;;3.47;;
5923;SDS011;2987;50.884;14.818;2024-01-15T14:25:46;5.87;;;3.33;;
5923;SDS011;2987;50.884;14.818;2024-01-15T14:28:12;4.73;;;3.40;;
5923;SDS011;2987;50.884;14.818;2024-01-15T14:30:38;4.40;;;3.57;;
5923;SDS011;2987;50.884;14.818;2024-01-15T14:33:04;4.93;;;3.60;;
5923;SDS011;2987;50.884;14.818;2024-01-15T14:35:30;7.07;;;3.63;;
5923;SDS011;2987;50.884;14.818;2024-01-15T14:37:56;5.80;;;3.43;;
5923;SDS011;2987;50.884;14.818;2024-01-15T14:40:24;6.27;;;3.67;;
5923;SDS011;2987;50.884;14.818;2024-01-15T14:42:51;5.20;;;3.10;;
5923;SDS011;2987;50.884;14.818;2024-01-15T14:45:18;6.33;;;3.90;;
5923;SDS011;2987;50.884;14.818;2024-01-15T14:47:44;4.90;;;3.40;;
5923;SDS011;2987;50.884;14.818;2024-01-15T14:50:10;5.97;;;3.87;;
5923;SDS011;2987;50.884;14.818;2024-01-15T14:52:37;5.50;;;3.87;;
5923;SDS011;2987;50.884;14.818;2024-01-15T14:55:04;3.93;;;3.33;;
5923;SDS011;2987;50.884;14.818;2024-01-15T14:57:31;4.90;;;3.53;;
5923;SDS011;2987;50.884;14.818;2024-01-15T14:59:57;5.60;;;3.80;;